Time;durP1;ratioP1;P1;durP2;ratioP2;P2;SDS_P1;SDS_P2;PMS_P1;PMS_P2;Temp;Humidity;BMP_temperature;BMP_pressure;BME280_temperature;BME280_humidity;BME280_pressure;Samples;Min_cycle;Max_cycle;Signal;HPM_P1;HPM_P2
2022/12/20 00:03:38;;;;;;;44.57;16.17;;;0.10;99.90;;;-2.53;98.49;101960.31;10577395;28;20420;-79
2022/12/20 00:08:41;;;;;;;40.00;16.00;;;0.10;99.90;;;-2.49;98.45;101982.78;10560939;28;20147;-79
2022/12/20 00:13:46;;;;;;;42.10;14.60;;;0.10;99.90;;;-2.50;98.44;101981.06;10567290;28;20063;-79
2022/12/20 00:18:56;;;;;;;42.23;14.90;;;0.10;99.90;;;-2.49;98.47;101974.09;10518765;28;20113;-79
2022/12/20 00:24:00;;;;;;;35.87;14.33;;;0.10;99.90;;;-2.50;98.96;101957.63;10542388;28;20492;-79
2022/12/20 00:29:05;;;;;;;36.53;14.03;;;0.10;99.90;;;-2.48;99.14;101961.03;10558489;28;20056;-79
2022/12/20 00:34:08;;;;;;;39.83;16.23;;;0.10;99.90;;;-2.48;98.73;101949.78;10579547;27;20056;-80
2022/12/20 00:39:11;;;;;;;36.00;15.13;;;0.10;99.90;;;-2.46;98.94;101950.59;10549511;28;20415;-80
2022/12/20 00:44:14;;;;;;;40.07;14.87;;;0.10;99.90;;;-2.45;98.96;101934.94;10554743;28;20060;-81
2022/12/20 00:49:17;;;;;;;35.27;14.10;;;0.10;99.90;;;-2.45;98.87;101931.50;10558897;28;20064;-80
2022/12/20 00:54:20;;;;;;;39.13;14.07;;;0.10;99.90;;;-2.46;98.76;101929.75;10560359;28;20064;-79
2022/12/20 00:59:22;;;;;;;38.43;14.60;;;0.20;99.90;;;-2.44;98.62;101925.38;10569548;28;20139;-79
2022/12/20 01:04:25;;;;;;;45.73;16.47;;;0.10;99.90;;;-2.47;98.55;101915.88;10549037;28;20059;-79
2022/12/20 01:09:28;;;;;;;35.83;13.87;;;0.10;99.90;;;-2.51;98.57;101919.50;10576084;28;20064;-79
2022/12/20 01:14:32;;;;;;;37.13;14.13;;;0.10;99.90;;;-2.57;98.72;101919.66;10566501;28;20117;-79
2022/12/20 01:19:37;;;;;;;38.03;15.27;;;0.00;99.90;;;-2.60;98.58;101917.13;10551584;28;20064;-79
2022/12/20 01:24:39;;;;;;;44.17;17.27;;;0.00;99.90;;;-2.62;98.90;101903.31;10543222;28;20067;-79
2022/12/20 01:29:43;;;;;;;36.77;14.67;;;0.00;99.90;;;-2.64;98.85;101886.00;10564455;28;20113;-79
2022/12/20 01:34:46;;;;;;;42.53;13.87;;;0.00;99.90;;;-2.65;98.64;101882.56;10542707;28;20056;-79
2022/12/20 01:39:49;;;;;;;41.70;15.70;;;0.00;99.90;;;-2.67;99.07;101881.75;10527706;28;20099;-79
2022/12/20 01:44:56;;;;;;;44.00;15.03;;;-0.10;99.90;;;-2.68;99.22;101869.66;10528648;28;20278;-79
2022/12/20 01:50:03;;;;;;;37.60;13.40;;;-0.10;99.90;;;-2.70;98.99;101846.28;10531067;28;20110;-81
2022/12/20 01:55:15;;;;;;;34.53;13.53;;;-0.10;99.90;;;-2.70;99.32;101837.59;10565063;28;20147;-80
2022/12/20 02:00:20;;;;;;;44.13;15.60;;;-0.10;99.90;;;-2.73;99.54;101835.09;10526474;28;20063;-79
2022/12/20 02:05:23;;;;;;;38.90;13.83;;;-0.10;99.90;;;-2.74;99.32;101834.25;10539259;28;20061;-80
2022/12/20 02:10:49;;;;;;;42.67;13.80;;;-0.10;99.90;;;-2.75;99.56;101842.94;10559984;28;20060;-80
2022/12/20 02:15:57;;;;;;;38.60;15.37;;;-0.10;99.90;;;-2.80;99.43;101830.97;10539871;27;20644;-80
2022/12/20 02:21:32;;;;;;;43.03;16.00;;;-0.20;99.90;;;-2.80;99.61;101828.38;10542731;28;20067;-81
2022/12/20 02:27:20;;;;;;;40.63;14.37;;;-0.20;99.90;;;-2.80;99.89;101828.38;10549129;28;20059;-79
2022/12/20 02:32:34;;;;;;;42.63;15.60;;;-0.20;99.90;;;-2.78;100.00;101831.75;10549687;28;20056;-80
2022/12/20 02:37:52;;;;;;;39.20;13.07;;;-0.20;99.90;;;-2.75;100.00;101836.91;10562685;28;20409;-79
2022/12/20 02:43:02;;;;;;;33.27;13.43;;;-0.20;99.90;;;-2.71;100.00;101817.69;10550794;28;20060;-79
2022/12/20 02:48:09;;;;;;;35.77;14.27;;;-0.10;99.90;;;-2.66;100.00;101814.94;10539753;28;20067;-81
2022/12/20 02:53:15;;;;;;;41.07;15.60;;;-0.10;99.90;;;-2.64;100.00;101789.72;10541335;28;20139;-79
2022/12/20 02:59:01;;;;;;;43.57;15.87;;;-0.10;99.90;;;-2.60;100.00;101786.16;10532695;28;20052;-81
2022/12/20 03:04:04;;;;;;;40.87;15.33;;;0.00;99.90;;;-2.58;100.00;101777.41;10574370;28;20063;-80
2022/12/20 03:09:07;;;;;;;38.53;14.87;;;0.00;99.90;;;-2.54;100.00;101773.78;10573252;27;20139;-80
2022/12/20 03:14:10;;;;;;;35.57;14.37;;;0.10;99.90;;;-2.51;100.00;101768.50;10555748;28;20155;-81
2022/12/20 03:19:13;;;;;;;27.83;11.60;;;0.10;99.90;;;-2.47;100.00;101780.53;10528604;28;20056;-81
2022/12/20 03:24:16;;;;;;;39.97;13.70;;;0.20;99.90;;;-2.46;100.00;101782.25;10596535;27;20079;-80
2022/12/20 03:29:19;;;;;;;39.17;14.23;;;0.10;99.90;;;-2.45;100.00;101783.94;10573871;28;20087;-82
2022/12/20 03:34:23;;;;;;;41.93;14.60;;;0.20;99.90;;;-2.43;100.00;101776.94;10555151;27;20102;-79
2022/12/20 03:39:26;;;;;;;38.23;12.80;;;0.20;99.90;;;-2.40;100.00;101770.78;10575618;28;20056;-81
2022/12/20 03:44:28;;;;;;;34.23;12.83;;;0.20;99.90;;;-2.39;100.00;101762.09;10544003;27;20431;-81
2022/12/20 03:49:32;;;;;;;42.93;14.60;;;0.20;99.90;;;-2.35;100.00;101757.63;10576898;27;20067;-81
2022/12/20 03:54:35;;;;;;;37.40;12.80;;;0.20;99.90;;;-2.33;100.00;101745.44;10549050;28;20083;-78
2022/12/20 03:59:38;;;;;;;33.93;14.07;;;0.30;99.90;;;-2.29;100.00;101747.88;10530156;28;20060;-78
2022/12/20 04:04:41;;;;;;;34.53;13.27;;;0.30;99.90;;;-2.26;100.00;101731.31;10569709;28;20109;-79
2022/12/20 04:09:44;;;;;;;34.57;12.33;;;0.30;99.90;;;-2.24;100.00;101721.69;10561247;28;20060;-79
2022/12/20 04:14:47;;;;;;;38.87;15.03;;;0.40;99.90;;;-2.23;100.00;101731.19;10552733;28;20063;-79
2022/12/20 04:19:50;;;;;;;33.87;13.47;;;0.40;99.90;;;-2.22;100.00;101727.69;10544219;28;20070;-78
2022/12/20 04:24:53;;;;;;;35.80;14.07;;;0.40;99.90;;;-2.20;100.00;101720.69;10577080;27;20182;-81
2022/12/20 04:29:56;;;;;;;34.33;12.77;;;0.40;99.90;;;-2.19;100.00;101714.56;10553001;28;20060;-80
2022/12/20 04:34:59;;;;;;;33.07;13.37;;;0.40;99.90;;;-2.17;100.00;101723.19;10576954;28;20056;-79
2022/12/20 04:40:02;;;;;;;38.87;14.90;;;0.50;99.90;;;-2.16;100.00;101727.50;10528436;28;20064;-82
2022/12/20 04:45:06;;;;;;;29.40;12.37;;;0.50;99.90;;;-2.14;100.00;101725.72;10537973;28;20110;-82
2022/12/20 04:50:10;;;;;;;42.70;16.77;;;0.50;99.90;;;-2.11;100.00;101720.38;10555663;28;20428;-82
2022/12/20 04:55:13;;;;;;;33.17;13.37;;;0.50;99.90;;;-2.10;99.79;101724.69;10546768;28;20143;-80
2022/12/20 05:00:16;;;;;;;30.37;12.17;;;0.50;99.90;;;-2.10;99.68;101736.84;10532725;28;20067;-80
2022/12/20 05:05:19;;;;;;;27.03;11.13;;;0.50;99.90;;;-2.07;99.79;101726.34;10538413;28;20063;-81
2022/12/20 05:10:22;;;;;;;29.30;11.57;;;0.50;99.90;;;-2.06;99.50;101733.25;10536702;28;20139;-80
2022/12/20 05:15:25;;;;;;;32.23;13.33;;;0.60;99.90;;;-2.03;99.50;101747.06;10555164;28;22000;-82
2022/12/20 05:20:30;;;;;;;37.23;11.83;;;0.60;99.90;;;-2.02;99.36;101751.34;10554988;28;20063;-82
2022/12/20 05:31:11;;;;;;;34.77;12.63;;;0.60;99.90;;;-1.99;99.61;101746.03;10491871;28;20064;-82
2022/12/20 05:36:15;;;;;;;44.40;13.03;;;0.60;99.90;;;-1.98;99.39;101747.75;10564704;28;20147;-81
2022/12/20 05:41:18;;;;;;;40.63;13.00;;;0.60;99.90;;;-1.97;99.26;101740.78;10552032;28;20742;-81
2022/12/20 05:46:21;;;;;;;38.97;14.90;;;0.60;99.90;;;-1.98;99.21;101737.34;10564495;28;20064;-81
2022/12/20 05:51:24;;;;;;;38.63;15.33;;;0.60;99.90;;;-1.99;99.18;101730.41;10563416;28;20106;-81
2022/12/20 05:56:27;;;;;;;35.83;14.10;;;0.60;99.90;;;-2.03;99.01;101707.97;10555340;27;20397;-83
2022/12/20 06:01:30;;;;;;;33.00;13.30;;;0.60;99.90;;;-2.02;98.96;101707.06;10521117;28;20147;-80
2022/12/20 06:06:34;;;;;;;29.20;12.10;;;0.50;99.90;;;-2.06;98.55;101700.25;10560970;28;20067;-81
2022/12/20 06:11:37;;;;;;;28.00;11.17;;;0.60;99.90;;;-2.06;98.67;101707.22;10554187;28;20071;-81
2022/12/20 06:16:40;;;;;;;30.77;12.20;;;0.50;99.90;;;-2.06;99.04;101704.59;10531089;28;20056;-81
2022/12/20 06:21:44;;;;;;;24.63;10.23;;;0.50;99.90;;;-2.06;98.64;101702.00;10550143;28;20068;-81
2022/12/20 06:26:47;;;;;;;27.33;11.10;;;0.50;99.90;;;-2.06;98.87;101702.84;10573101;28;20055;-82
2022/12/20 06:31:50;;;;;;;32.30;12.27;;;0.50;99.90;;;-2.07;98.67;101685.53;10551626;28;20520;-82
2022/12/20 06:36:53;;;;;;;34.63;12.03;;;0.50;99.90;;;-2.13;98.75;101680.53;10560282;28;20060;-82
2022/12/20 06:41:55;;;;;;;30.17;13.40;;;0.50;99.90;;;-2.15;98.47;101661.50;10555487;28;20134;-82
2022/12/20 06:46:58;;;;;;;29.57;12.13;;;0.50;99.90;;;-2.14;98.69;101675.38;10528214;28;20066;-83
2022/12/20 06:52:05;;;;;;;32.20;12.67;;;0.40;99.90;;;-2.14;98.61;101668.41;10539829;28;20511;-85
2022/12/20 06:57:07;;;;;;;32.70;13.17;;;0.40;99.90;;;-2.12;98.25;101677.00;10565930;28;20114;-84
2022/12/20 07:02:11;;;;;;;28.60;12.73;;;0.40;99.90;;;-2.07;98.44;101675.09;10541524;28;20100;-85
2022/12/20 07:07:16;;;;;;;43.87;18.17;;;0.50;99.90;;;-2.01;98.52;101679.25;10534091;28;20052;-85
2022/12/20 07:12:19;;;;;;;30.93;13.10;;;0.50;99.90;;;-1.95;98.62;101685.13;10558184;28;20159;-85
2022/12/20 07:17:22;;;;;;;29.17;12.07;;;0.60;99.90;;;-1.92;98.47;101685.03;10570718;28;20466;-85
2022/12/20 07:22:25;;;;;;;28.60;12.03;;;0.60;99.90;;;-1.89;98.37;101684.91;10553454;28;20447;-85
2022/12/20 07:27:28;;;;;;;29.53;12.63;;;0.70;99.90;;;-1.84;98.29;101681.31;10574112;28;20102;-85
2022/12/20 07:32:31;;;;;;;30.83;11.87;;;0.70;99.90;;;-1.82;98.18;101682.09;10571207;28;20056;-85
2022/12/20 07:37:35;;;;;;;27.80;12.17;;;0.70;99.90;;;-1.80;97.94;101688.09;10570965;28;20056;-85
2022/12/20 07:42:39;;;;;;;28.57;11.80;;;0.80;99.90;;;-1.78;97.91;101686.31;10558368;28;20431;-85
2022/12/20 07:47:50;;;;;;;31.93;13.17;;;0.80;99.90;;;-1.69;97.64;101692.03;10546811;28;20110;-85
2022/12/20 07:52:53;;;;;;;32.53;12.63;;;0.80;99.90;;;-1.60;97.61;101677.84;10543085;28;20571;-85
2022/12/20 07:58:03;;;;;;;36.67;14.70;;;0.90;99.90;;;-1.56;97.25;101674.22;10588785;28;20067;-85
2022/12/20 08:03:22;;;;;;;26.00;11.50;;;1.00;99.90;;;-1.55;97.27;101651.63;10542876;28;20084;-85
2022/12/20 08:08:25;;;;;;;32.63;12.87;;;1.00;99.90;;;-1.53;96.82;101660.22;10548210;28;20075;-85
2022/12/20 08:13:28;;;;;;;33.23;12.70;;;1.00;99.90;;;-1.53;96.61;101645.44;10561626;28;20059;-85
2022/12/20 08:18:31;;;;;;;29.60;12.13;;;1.00;99.90;;;-1.44;96.31;101645.13;10527883;28;20067;-85
2022/12/20 08:23:34;;;;;;;40.83;17.37;;;1.10;99.90;;;-1.28;96.41;101631.50;10550420;28;20201;-85
2022/12/20 08:28:37;;;;;;;37.17;15.83;;;1.30;99.90;;;-0.86;96.46;101632.47;10541534;28;20542;-86
2022/12/20 08:33:40;;;;;;;31.47;14.23;;;1.60;99.90;;;-0.49;95.76;101635.38;10558285;28;20415;-86
2022/12/20 08:38:43;;;;;;;27.43;12.07;;;2.00;99.90;;;-0.36;94.30;101627.00;10568844;27;20068;-85
2022/12/20 08:43:46;;;;;;;23.67;10.40;;;2.30;99.90;;;-0.27;93.36;101621.38;10538256;28;20143;-86
2022/12/20 08:48:49;;;;;;;25.03;10.63;;;2.40;99.90;;;-0.20;92.21;101632.41;10542986;28;20082;-86
2022/12/20 08:53:52;;;;;;;24.27;11.57;;;2.50;99.90;;;-0.18;90.81;101627.13;10543268;28;20076;-86
2022/12/20 08:58:54;;;;;;;25.47;12.47;;;2.50;99.90;;;-0.15;90.45;101632.22;10553821;28;20604;-86
2022/12/20 09:03:58;;;;;;;24.37;11.10;;;2.50;99.90;;;-0.13;89.64;101612.94;10547766;28;20063;-86
2022/12/20 09:09:02;;;;;;;23.87;10.13;;;2.50;99.90;;;-0.09;88.60;101622.38;10554562;28;20056;-86
2022/12/20 09:14:06;;;;;;;26.40;10.63;;;2.60;99.90;;;-0.13;87.45;101625.16;10530398;28;20495;-87
2022/12/20 09:19:12;;;;;;;24.07;10.77;;;2.60;99.90;;;-0.13;87.02;101612.94;10565205;28;20067;-86
2022/12/20 09:24:16;;;;;;;25.27;11.63;;;2.60;99.90;;;-0.15;86.62;101613.94;10554248;28;20060;-86
2022/12/20 09:29:19;;;;;;;22.87;10.20;;;2.50;99.90;;;-0.15;85.98;101604.34;10537156;28;20094;-86
2022/12/20 09:34:31;;;;;;;24.63;11.07;;;2.50;99.90;;;-0.11;86.28;101587.63;10566244;28;20504;-87
2022/12/20 09:39:36;;;;;;;23.03;10.00;;;2.50;99.90;;;0.08;86.23;101574.59;10560573;27;20068;-85
2022/12/20 09:44:41;;;;;;;27.03;11.10;;;2.70;99.90;;;0.26;85.20;101571.19;10537370;28;20142;-85
2022/12/20 09:49:49;;;;;;;24.83;11.50;;;2.90;99.90;;;0.32;84.45;101566.59;10543260;28;20064;-87
2022/12/20 09:55:33;;;;;;;25.23;10.73;;;3.00;99.90;;;0.40;83.82;101565.31;10549220;28;20239;-87
2022/12/20 10:00:46;;;;;;;25.27;11.27;;;3.10;99.90;;;0.39;83.49;101547.09;10548017;28;20435;-86
2022/12/20 10:06:03;;;;;;;23.50;9.80;;;3.10;99.90;;;0.37;82.92;101549.78;10537611;28;20083;-87
2022/12/20 10:11:49;;;;;;;24.38;11.10;;;3.10;99.90;;;0.39;82.73;101545.31;10562271;28;20109;-84
2022/12/20 10:17:14;;;;;;;22.50;10.90;;;3.10;99.90;;;0.45;82.56;101529.34;10567961;28;20062;-86
2022/12/20 10:22:24;;;;;;;26.27;11.43;;;3.10;99.90;;;0.47;82.14;101511.81;10549953;28;20067;-85
2022/12/20 10:27:28;;;;;;;24.87;11.03;;;3.20;99.90;;;0.55;82.13;101516.69;10565421;28;20052;-85
2022/12/20 10:32:32;;;;;;;23.23;10.67;;;3.20;99.90;;;0.71;82.29;101514.19;10561187;28;20139;-85
2022/12/20 10:37:35;;;;;;;23.63;10.27;;;3.40;99.90;;;0.87;81.28;101498.63;10522994;28;20480;-84
2022/12/20 10:42:42;;;;;;;21.70;10.43;;;3.60;99.90;;;0.86;80.49;101495.16;10507335;28;20459;-85
2022/12/20 10:47:47;;;;;;;22.33;9.93;;;3.60;99.90;;;0.80;80.40;101485.84;10545609;28;20056;-85
2022/12/20 10:53:24;;;;;;;20.50;9.80;;;3.60;99.90;;;0.74;80.31;101465.19;10567566;28;20175;-86
2022/12/20 10:58:29;;;;;;;23.93;9.43;;;3.50;99.90;;;0.87;80.36;101465.44;10540707;27;20119;-87
2022/12/20 11:03:32;;;;;;;19.03;9.00;;;3.60;99.90;;;1.02;80.26;101469.94;10539577;28;20112;-86
2022/12/20 11:08:35;;;;;;;20.70;9.90;;;3.80;99.90;;;1.08;79.75;101460.94;10561229;28;20056;-86
2022/12/20 11:13:48;;;;;;;20.70;9.43;;;3.80;99.90;;;1.15;79.62;101446.63;10563116;28;20058;-86
2022/12/20 11:19:55;;;;;;;21.13;9.53;;;3.90;99.90;;;1.25;79.42;101426.88;10559062;28;20064;-86
2022/12/20 11:25:06;;;;;;;23.63;10.13;;;4.00;99.90;;;1.41;78.86;101411.22;10373011;28;20058;-87
2022/12/20 11:31:05;;;;;;;21.47;10.30;;;4.20;99.90;;;1.46;78.22;101417.09;10511355;28;20056;-87
2022/12/20 11:36:26;;;;;;;24.77;10.90;;;4.20;99.90;;;1.44;78.03;101407.59;10527585;28;20060;-86
2022/12/20 11:42:08;;;;;;;21.53;9.40;;;4.20;99.90;;;1.50;77.88;101399.41;10562079;28;20060;-87
2022/12/20 11:48:33;;;;;;;21.57;10.53;;;4.20;99.90;;;1.57;77.61;101400.81;10574989;28;20060;-87
2022/12/20 11:53:37;;;;;;;21.00;10.40;;;4.30;99.90;;;1.60;77.52;101405.88;10384026;28;20136;-87
2022/12/20 11:59:00;;;;;;;21.90;10.60;;;4.40;99.90;;;1.55;77.15;101389.53;10529361;28;20063;-88
2022/12/20 12:04:19;;;;;;;29.60;12.43;;;4.30;99.90;;;1.57;77.20;101378.06;10559717;28;20574;-86
2022/12/20 12:10:01;;;;;;;23.30;10.90;;;4.30;99.90;;;1.53;76.44;101381.78;10552176;28;20068;-87
2022/12/20 12:16:22;;;;;;;21.30;10.50;;;4.40;99.90;;;1.39;76.43;101383.44;10562522;28;20059;-86
2022/12/20 12:21:55;;;;;;;25.33;10.33;;;4.20;99.90;;;1.28;76.74;101363.88;10334452;28;20057;-87
2022/12/20 12:26:58;;;;;;;;;;;4.10;99.90;;;1.23;76.70;101358.03;10562950;28;20143;-86
2022/12/20 12:32:32;;;;;;;23.57;10.00;;;4.00;99.90;;;1.18;76.97;101351.34;10566464;28;19927;-86
2022/12/20 12:38:02;;;;;;;26.67;12.53;;;3.90;99.90;;;1.12;77.15;101349.88;10564909;28;20060;-85
2022/12/20 12:43:39;;;;;;;28.00;11.60;;;3.80;99.90;;;1.10;77.51;101346.50;10572890;28;20061;-86
2022/12/20 12:48:44;;;;;;;26.30;11.60;;;3.80;99.90;;;1.12;77.84;101343.81;10577876;28;20083;-85
2022/12/20 12:53:52;;;;;;;20.27;9.40;;;3.80;99.90;;;1.15;77.65;101347.13;10571345;28;20091;-85
2022/12/20 12:59:20;;;;;;;20.53;9.13;;;3.80;99.90;;;1.19;77.66;101334.69;10543112;28;20094;-86
2022/12/20 13:04:28;;;;;;;20.13;9.97;;;3.90;99.90;;;1.17;77.33;101326.09;10558578;27;20068;-86
2022/12/20 13:09:31;;;;;;;28.20;13.27;;;3.80;99.90;;;1.16;77.38;101330.47;10531354;28;20059;-85
2022/12/20 13:14:40;;;;;;;24.10;10.20;;;3.80;99.90;;;1.11;77.02;101329.88;10549980;28;20052;-86
2022/12/20 13:19:54;;;;;;;29.07;13.23;;;3.70;99.90;;;1.03;77.46;101325.03;10551459;28;20147;-85
2022/12/20 13:25:02;;;;;;;38.63;18.20;;;3.70;99.90;;;0.99;77.83;101320.88;10535620;28;20059;-86
2022/12/20 13:30:16;;;;;;;32.50;12.53;;;3.60;99.90;;;0.91;77.62;101302.13;10542372;28;20109;-86
2022/12/20 13:35:25;;;;;;;28.83;13.20;;;3.60;99.90;;;0.82;77.76;101318.28;10525646;28;20551;-85
2022/12/20 13:40:38;;;;;;;43.23;20.13;;;3.40;99.90;;;0.72;77.51;101314.44;10558286;28;20060;-88
2022/12/20 13:45:50;;;;;;;21.30;10.37;;;3.30;99.90;;;0.60;78.37;101315.03;10544506;28;20090;-87
2022/12/20 13:50:56;;;;;;;23.63;10.60;;;3.20;99.90;;;0.47;79.10;101305.19;10567416;28;20142;-87
2022/12/20 13:56:46;;;;;;;29.83;10.87;;;3.10;99.90;;;0.40;80.12;101295.13;10539246;28;20141;-88
2022/12/20 14:01:53;;;;;;;21.63;10.03;;;3.00;99.90;;;0.33;80.79;101291.13;10533327;28;20067;-88
2022/12/20 14:07:00;;;;;;;42.37;16.47;;;2.90;99.90;;;0.31;81.27;101282.53;10566246;27;20460;-88
2022/12/20 14:12:16;;;;;;;35.67;15.03;;;2.90;99.90;;;0.23;81.84;101275.88;10528787;28;20064;-88
2022/12/20 14:17:32;;;;;;;36.03;14.80;;;2.80;99.90;;;0.15;82.10;101269.34;10546543;28;20088;-88
2022/12/20 14:23:14;;;;;;;29.83;12.37;;;2.80;99.90;;;0.04;82.75;101269.88;10554921;28;20527;-88
2022/12/20 14:28:38;;;;;;;27.97;11.37;;;2.60;99.90;;;-0.07;83.25;101262.53;10559113;28;20596;-88
2022/12/20 14:33:41;;;;;;;40.07;13.63;;;2.50;99.90;;;-0.18;83.24;101264.84;10553466;28;20052;-88
2022/12/20 14:38:48;;;;;;;28.87;12.73;;;2.40;99.90;;;-0.28;83.89;101260.97;10537033;28;20063;-88
2022/12/20 14:43:56;;;;;;;31.10;12.77;;;2.30;99.90;;;-0.35;84.42;101255.19;10542578;28;20066;-88
2022/12/20 14:49:23;;;;;;;34.80;14.87;;;2.20;99.90;;;-0.40;84.83;101256.31;10524860;28;20063;-84
2022/12/20 14:54:28;;;;;;;33.03;15.23;;;2.20;99.90;;;-0.48;85.47;101250.59;10560537;28;20067;-87
2022/12/20 15:00:17;;;;;;;39.07;17.90;;;2.10;99.90;;;-0.54;86.19;101259.56;10547664;28;20060;-85
2022/12/20 15:05:45;;;;;;;47.27;18.00;;;2.00;99.90;;;-0.60;86.83;101263.31;10556997;27;20061;-86
2022/12/20 15:11:09;;;;;;;44.20;17.43;;;1.90;99.90;;;-0.63;87.30;101254.78;10550529;28;20397;-85
2022/12/20 15:16:23;;;;;;;44.13;16.37;;;1.80;99.90;;;-0.69;87.56;101257.66;10542199;28;20110;-86
2022/12/20 15:21:41;;;;;;;38.03;15.23;;;1.80;99.90;;;-0.72;88.09;101257.78;10556700;28;20088;-86
2022/12/20 15:26:46;;;;;;;42.33;18.60;;;1.80;99.90;;;-0.76;88.50;101261.47;10554543;28;20060;-85
2022/12/20 15:32:05;;;;;;;41.50;15.67;;;1.80;99.90;;;-0.83;88.84;101261.75;10545291;28;20428;-86
2022/12/20 15:37:13;;;;;;;46.70;18.67;;;1.70;99.90;;;-0.83;89.02;101266.13;10560854;28;20060;-82
2022/12/20 15:42:21;;;;;;;42.05;17.77;;;1.70;99.90;;;-0.84;89.24;101270.50;10535475;28;20060;-81
2022/12/20 15:47:25;;;;;;;34.97;15.67;;;1.70;99.90;;;-0.86;89.69;101274.09;10570479;27;20098;-81
2022/12/20 15:52:28;;;;;;;38.07;16.80;;;1.60;99.90;;;-0.89;89.75;101262.03;10539424;28;20060;-82
2022/12/20 15:57:31;;;;;;;32.77;15.47;;;1.60;99.90;;;-0.89;90.38;101263.78;10547962;28;20063;-82
2022/12/20 16:02:34;;;;;;;47.97;20.07;;;1.60;99.90;;;-0.90;90.39;101267.28;10535263;28;20057;-82
2022/12/20 16:07:37;;;;;;;46.60;18.83;;;1.60;99.90;;;-0.92;90.83;101267.38;10539527;28;20057;-82
2022/12/20 16:12:41;;;;;;;33.17;14.27;;;1.60;99.90;;;-0.93;90.62;101252.63;10542493;28;20071;-86
2022/12/20 16:17:44;;;;;;;37.13;14.17;;;1.60;99.90;;;-0.95;91.17;101251.03;10527433;28;20064;-78
2022/12/20 16:22:46;;;;;;;38.17;16.93;;;1.60;99.90;;;-0.95;91.42;101264.91;10576147;28;20060;-78
2022/12/20 16:27:50;;;;;;;39.63;17.57;;;1.60;99.90;;;-0.98;91.82;101258.97;10548935;28;20139;-79
2022/12/20 16:32:53;;;;;;;36.90;16.53;;;1.60;99.90;;;-0.99;92.18;101245.09;10544278;28;20064;-79
2022/12/20 16:37:59;;;;;;;39.33;17.37;;;1.50;99.90;;;-1.00;92.34;101242.56;10547300;28;20404;-78
2022/12/20 16:43:02;;;;;;;36.63;18.10;;;1.50;99.90;;;-1.03;92.62;101247.88;10573781;28;20068;-79
2022/12/20 16:48:05;;;;;;;60.20;22.90;;;1.50;99.90;;;-1.02;92.58;101247.84;10534248;28;20059;-78
2022/12/20 16:53:14;;;;;;;49.53;20.77;;;1.50;99.90;;;-1.04;92.81;101239.22;10557606;28;20075;-78
2022/12/20 16:58:17;;;;;;;42.33;17.70;;;1.50;99.90;;;-1.06;93.32;101232.38;10562291;28;20060;-78
2022/12/20 17:03:19;;;;;;;42.20;19.03;;;1.50;99.90;;;-1.06;93.69;101233.22;10538163;28;20110;-78
2022/12/20 17:08:23;;;;;;;51.60;19.20;;;1.50;99.90;;;-1.08;93.58;101232.44;10567266;28;20052;-78
2022/12/20 17:13:45;;;;;;;50.47;20.10;;;1.40;99.90;;;-1.09;94.02;101228.97;10543799;28;20063;-78
2022/12/20 17:18:51;;;;;;;58.43;22.87;;;1.40;99.90;;;-1.10;93.80;101221.22;10538027;28;20101;-78
2022/12/20 17:23:54;;;;;;;62.00;24.97;;;1.40;99.90;;;-1.10;94.38;101223.84;10560056;28;20144;-78
2022/12/20 17:28:59;;;;;;;49.77;21.93;;;1.40;99.90;;;-1.12;94.80;101223.91;10555672;28;20056;-78
2022/12/20 17:34:14;;;;;;;40.53;17.60;;;1.40;99.90;;;-1.12;95.07;101218.69;10536238;28;20088;-78
2022/12/20 17:39:17;;;;;;;48.93;19.40;;;1.40;99.90;;;-1.12;95.40;101230.91;10550546;28;20137;-84
2022/12/20 17:44:26;;;;;;;59.13;22.57;;;1.40;99.90;;;-1.13;95.70;101224.00;10548857;28;20068;-82
2022/12/20 17:49:30;;;;;;;49.47;20.07;;;1.40;99.90;;;-1.16;95.33;101217.13;10526335;28;20057;-81
2022/12/20 17:54:33;;;;;;;55.13;22.60;;;1.30;99.90;;;-1.18;95.56;101212.91;10566287;28;20056;-83
2022/12/20 17:59:42;;;;;;;55.43;21.87;;;1.30;99.90;;;-1.23;95.82;101209.66;10529486;28;20068;-81
2022/12/20 18:04:45;;;;;;;58.80;21.10;;;1.30;99.90;;;-1.28;96.09;101206.41;10561682;28;20146;-84
2022/12/20 18:09:49;;;;;;;47.33;20.60;;;1.20;99.90;;;-1.37;96.36;101211.13;10548501;27;20129;-84
2022/12/20 18:14:52;;;;;;;50.63;23.53;;;1.10;99.90;;;-1.46;96.45;101193.25;10527732;28;20080;-86
2022/12/20 18:19:55;;;;;;;43.87;19.67;;;1.00;99.90;;;-1.51;96.54;101190.00;10564975;28;20565;-85
2022/12/20 18:24:59;;;;;;;55.27;21.17;;;0.90;99.90;;;-1.59;97.01;101186.03;10557527;28;20060;-83
2022/12/20 18:30:03;;;;;;;47.03;21.30;;;0.90;99.90;;;-1.62;97.25;101171.38;10550624;28;20140;-83
2022/12/20 18:35:07;;;;;;;85.47;31.00;;;0.90;99.90;;;-1.65;97.36;101171.50;10562977;28;20442;-82
2022/12/20 18:40:10;;;;;;;75.10;25.10;;;0.80;99.90;;;-1.62;97.78;101163.53;10530183;28;20528;-83
2022/12/20 18:45:13;;;;;;;59.63;25.40;;;0.80;99.90;;;-1.60;97.88;101164.34;10530666;28;20088;-82
2022/12/20 18:50:16;;;;;;;62.33;24.43;;;0.80;99.90;;;-1.59;98.10;101165.19;10569035;27;20048;-82
2022/12/20 18:55:19;;;;;;;62.17;24.27;;;0.80;99.90;;;-1.57;98.42;101177.22;10538278;28;20419;-81
2022/12/20 19:00:22;;;;;;;54.53;21.33;;;0.80;99.90;;;-1.57;98.54;101168.56;10528638;28;20648;-81
2022/12/20 19:05:27;;;;;;;52.67;21.53;;;0.80;99.90;;;-1.59;99.06;101160.81;10535463;28;20168;-83
2022/12/20 19:10:31;;;;;;;42.97;19.43;;;0.80;99.90;;;-1.58;99.23;101141.66;10544696;28;20053;-84
2022/12/20 19:15:35;;;;;;;56.57;21.90;;;0.80;99.90;;;-1.58;99.36;101141.66;10550776;28;20060;-79
2022/12/20 19:20:38;;;;;;;59.23;23.57;;;0.90;99.90;;;-1.57;99.29;101132.91;10571852;27;20428;-79
2022/12/20 19:25:42;;;;;;;69.03;25.40;;;0.80;99.90;;;-1.59;99.84;101124.31;10569937;28;20064;-79
2022/12/20 19:30:45;;;;;;;55.73;21.30;;;0.80;99.90;;;-1.59;100.00;101134.75;10571195;28;20095;-85
2022/12/20 19:35:49;;;;;;;47.87;18.77;;;0.80;99.90;;;-1.61;100.00;101131.38;10546461;28;20500;-79
2022/12/20 19:40:58;;;;;;;52.87;21.07;;;0.80;99.90;;;-1.58;100.00;101131.22;10547270;28;20541;-79
2022/12/20 19:46:01;;;;;;;45.17;20.20;;;0.80;99.90;;;-1.58;100.00;101136.44;10563038;28;20063;-80
2022/12/20 19:51:14;;;;;;;52.10;19.63;;;0.80;99.90;;;-1.55;100.00;101154.56;10566449;28;20592;-78
2022/12/20 19:56:21;;;;;;;65.07;24.53;;;0.90;99.90;;;-1.53;100.00;101170.97;10585070;28;20062;-81
2022/12/20 20:01:26;;;;;;;70.00;25.43;;;0.90;99.90;;;-1.51;100.00;101165.69;10548730;28;20429;-80
2022/12/20 20:06:29;;;;;;;63.33;24.23;;;0.90;99.90;;;-1.49;100.00;101158.66;10536590;28;20063;-83
2022/12/20 20:11:32;;;;;;;61.00;23.80;;;0.90;99.90;;;-1.48;100.00;101155.16;10562224;28;20480;-78
2022/12/20 20:16:36;;;;;;;56.37;22.53;;;0.90;99.90;;;-1.47;100.00;101149.84;10537526;28;20564;-78
2022/12/20 20:21:39;;;;;;;49.13;20.27;;;1.00;99.90;;;-1.47;100.00;101149.84;10553256;28;20144;-79
2022/12/20 20:26:42;;;;;;;48.83;19.90;;;1.00;99.90;;;-1.43;100.00;101155.78;10549776;28;20059;-79
2022/12/20 20:31:45;;;;;;;57.40;21.47;;;1.00;99.90;;;-1.39;100.00;101147.75;10574774;27;20067;-79
2022/12/20 20:36:48;;;;;;;43.77;19.03;;;1.00;99.90;;;-1.33;100.00;101140.56;10560683;28;20533;-79
2022/12/20 20:41:51;;;;;;;39.97;16.53;;;1.10;99.90;;;-1.26;100.00;101144.59;10533142;28;20438;-80
2022/12/20 20:46:54;;;;;;;46.20;19.63;;;1.20;99.90;;;-1.22;100.00;101122.66;10560384;28;20056;-79
2022/12/20 20:51:57;;;;;;;45.67;20.70;;;1.30;99.90;;;-1.18;100.00;101116.41;10562702;28;20420;-80
2022/12/20 20:57:00;;;;;;;49.77;20.83;;;1.30;99.90;;;-1.13;100.00;101117.06;10569213;28;20139;-81
2022/12/20 21:02:03;;;;;;;51.13;22.23;;;1.40;99.90;;;-1.12;100.00;101110.91;10568718;28;20075;-81
2022/12/20 21:07:06;;;;;;;48.93;19.53;;;1.40;99.90;;;-1.08;100.00;101112.44;10559191;28;20102;-79